Time;durP1;ratioP1;P1;durP2;ratioP2;P2;SDS_P1;SDS_P2;PMS_P1;PMS_P2;Temp;Humidity;BMP_temperature;BMP_pressure;BME280_temperature;BME280_humidity;BME280_pressure;Samples;Min_cycle;Max_cycle;Signal;HPM_P1;HPM_P2
2023/10/31 00:00:18;;;;;;;0.20;0.20;;;13.80;99.90;;;;;;4979884;28;20034;-78
2023/10/31 00:02:44;;;;;;;0.40;0.40;;;13.70;99.90;;;;;;4984068;28;20033;-79
2023/10/31 00:05:10;;;;;;;0.63;0.55;;;13.80;99.90;;;;;;4982157;28;20605;-79
2023/10/31 00:07:35;;;;;;;1.38;0.40;;;13.70;99.90;;;;;;4980393;28;20033;-78
2023/10/31 00:10:01;;;;;;;0.20;0.20;;;13.40;99.90;;;;;;4980237;28;20415;-78
2023/10/31 00:12:27;;;;;;;0.10;0.10;;;13.00;99.90;;;;;;4978223;28;20088;-77
2023/10/31 00:14:53;;;;;;;0.20;0.20;;;12.60;99.90;;;;;;4979316;28;20077;-79
2023/10/31 00:17:18;;;;;;;0.20;0.20;;;12.40;99.90;;;;;;4977371;28;20654;-78
2023/10/31 00:19:44;;;;;;;0.20;0.20;;;12.20;99.90;;;;;;4981594;28;20022;-79
2023/10/31 00:22:11;;;;;;;0.20;0.20;;;12.00;99.90;;;;;;4977548;28;20171;-79
2023/10/31 00:24:36;;;;;;;0.20;0.20;;;11.90;99.90;;;;;;4962908;28;20058;-80
2023/10/31 00:27:02;;;;;;;0.20;0.20;;;11.90;99.90;;;;;;4978372;28;20082;-77
2023/10/31 00:29:28;;;;;;;0.20;0.20;;;11.90;99.90;;;;;;4977738;28;20391;-79
2023/10/31 00:31:55;;;;;;;0.20;0.20;;;11.90;99.90;;;;;;4980879;28;20041;-84
2023/10/31 00:34:26;;;;;;;0.47;0.47;;;11.80;99.90;;;;;;4980580;28;20090;-82
2023/10/31 00:36:51;;;;;;;0.17;0.17;;;11.90;99.90;;;;;;4963194;28;20019;-82
2023/10/31 00:39:19;;;;;;;0.13;0.13;;;11.80;99.90;;;;;;4984061;28;20038;-84
2023/10/31 00:41:48;;;;;;;0.20;0.20;;;11.90;99.90;;;;;;4980262;28;20061;-83
2023/10/31 00:44:14;;;;;;;0.20;0.20;;;11.80;99.90;;;;;;4982689;28;20564;-87
2023/10/31 00:46:40;;;;;;;0.20;0.20;;;11.80;99.90;;;;;;4981426;28;20349;-86
2023/10/31 00:49:05;;;;;;;0.20;0.20;;;11.80;99.90;;;;;;4980636;28;20061;-85
2023/10/31 00:51:32;;;;;;;0.10;0.10;;;11.80;99.90;;;;;;4980990;28;20408;-84
2023/10/31 00:53:58;;;;;;;0.20;0.20;;;11.80;99.90;;;;;;4978255;28;20038;-83
2023/10/31 00:56:23;;;;;;;0.10;0.10;;;11.80;99.90;;;;;;4981019;28;20112;-86
2023/10/31 00:58:51;;;;;;;0.20;0.20;;;11.80;99.90;;;;;;4980196;28;20505;-86
2023/10/31 01:01:17;;;;;;;0.10;0.10;;;11.90;99.90;;;;;;4980168;28;20014;-84
2023/10/31 01:03:43;;;;;;;0.10;0.10;;;11.90;99.90;;;;;;4964308;28;20376;-86
2023/10/31 01:06:09;;;;;;;0.10;0.10;;;11.90;99.90;;;;;;4979861;28;20022;-88
2023/10/31 01:08:34;;;;;;;0.38;0.38;;;11.90;99.90;;;;;;4983438;28;20026;-85
2023/10/31 01:11:00;;;;;;;2.85;0.75;;;11.90;99.90;;;;;;4983665;28;20018;-82
2023/10/31 01:13:26;;;;;;;0.10;0.10;;;11.90;99.90;;;;;;4980717;28;20069;-83
2023/10/31 01:15:51;;;;;;;0.25;0.25;;;11.80;99.90;;;;;;4980465;28;20045;-83
2023/10/31 01:18:17;;;;;;;0.10;0.10;;;11.80;99.90;;;;;;4980414;28;20081;-83
2023/10/31 01:20:43;;;;;;;0.15;0.15;;;11.90;99.90;;;;;;4981551;28;20033;-81
2023/10/31 01:23:10;;;;;;;0.10;0.10;;;11.80;99.90;;;;;;4979479;28;20033;-87
2023/10/31 01:25:36;;;;;;;0.10;0.10;;;11.80;99.90;;;;;;4981290;28;20022;-83
2023/10/31 01:28:02;;;;;;;0.10;0.10;;;11.70;99.90;;;;;;4982197;28;20531;-86
2023/10/31 01:30:27;;;;;;;0.10;0.10;;;11.70;99.90;;;;;;4982622;28;20030;-84
2023/10/31 01:32:53;;;;;;;0.20;0.20;;;11.70;99.90;;;;;;4982054;28;20039;-87
2023/10/31 01:35:19;;;;;;;0.10;0.10;;;11.70;99.90;;;;;;4984071;28;20054;-82
2023/10/31 01:37:44;;;;;;;0.10;0.10;;;11.70;99.90;;;;;;4985547;28;20026;-87
2023/10/31 01:40:13;;;;;;;0.40;0.40;;;11.60;99.90;;;;;;4983056;28;20037;-86
2023/10/31 01:42:38;;;;;;;0.20;0.20;;;11.70;99.90;;;;;;4981661;28;20451;-83
2023/10/31 01:45:04;;;;;;;0.10;0.10;;;11.70;99.90;;;;;;4980975;28;20153;-84
2023/10/31 01:47:32;;;;;;;0.73;0.73;;;11.70;99.90;;;;;;4981156;28;20387;-89
2023/10/31 01:49:59;;;;;;;0.10;0.10;;;11.70;99.90;;;;;;4980000;28;20487;-85
2023/10/31 01:52:25;;;;;;;0.10;0.10;;;11.70;99.90;;;;;;4982876;28;20458;-85
2023/10/31 01:54:51;;;;;;;0.20;0.20;;;11.70;99.90;;;;;;4981618;28;20429;-85
2023/10/31 01:57:20;;;;;;;0.32;0.32;;;11.70;99.90;;;;;;4981645;28;20030;-84
2023/10/31 01:59:46;;;;;;;0.15;0.15;;;11.70;99.90;;;;;;4980158;28;20033;-87
2023/10/31 02:02:12;;;;;;;0.30;0.30;;;11.70;99.90;;;;;;4982854;28;20022;-87
2023/10/31 02:04:39;;;;;;;0.10;0.10;;;11.70;99.90;;;;;;4981630;28;20130;-86
2023/10/31 02:07:05;;;;;;;0.10;0.10;;;11.70;99.90;;;;;;4982270;28;20589;-83
2023/10/31 02:09:32;;;;;;;0.10;0.10;;;11.60;99.90;;;;;;4983082;28;20122;-85
2023/10/31 02:11:57;;;;;;;0.10;0.10;;;11.60;99.90;;;;;;4982746;28;20021;-84
2023/10/31 02:14:27;;;;;;;0.15;0.15;;;11.60;99.90;;;;;;4982244;28;20046;-87
2023/10/31 02:16:52;;;;;;;0.30;0.30;;;11.50;99.90;;;;;;4980778;28;20030;-85
2023/10/31 02:19:21;;;;;;;0.10;0.10;;;11.60;99.90;;;;;;4980289;28;20053;-87
2023/10/31 02:21:47;;;;;;;0.20;0.20;;;11.70;99.90;;;;;;4978259;28;20026;-82
2023/10/31 02:24:12;;;;;;;0.40;0.40;;;11.70;99.90;;;;;;4982091;28;20418;-88
2023/10/31 02:26:38;;;;;;;0.65;0.65;;;11.70;99.90;;;;;;4978621;28;20402;-85
2023/10/31 02:29:04;;;;;;;0.50;0.50;;;11.70;99.90;;;;;;4979987;28;20363;-85
2023/10/31 02:31:30;;;;;;;0.88;0.80;;;11.70;99.90;;;;;;4979118;28;20584;-88
2023/10/31 02:33:55;;;;;;;0.20;0.20;;;11.70;99.90;;;;;;4966450;28;20038;-85
2023/10/31 02:36:22;;;;;;;1.30;1.30;;;11.70;99.90;;;;;;4981015;28;20010;-83
2023/10/31 02:38:47;;;;;;;0.88;0.35;;;11.80;99.90;;;;;;4980889;28;20026;-83
2023/10/31 02:41:13;;;;;;;1.05;1.05;;;11.70;99.90;;;;;;4979325;28;20022;-85
2023/10/31 02:43:42;;;;;;;0.28;0.28;;;11.70;99.90;;;;;;4980544;28;20190;-84
2023/10/31 02:46:07;;;;;;;0.28;0.28;;;11.80;99.90;;;;;;4984656;28;20018;-84
2023/10/31 02:48:39;;;;;;;0.40;0.40;;;11.60;99.90;;;;;;4985003;28;20026;-84
2023/10/31 02:51:07;;;;;;;0.65;0.45;;;11.70;99.90;;;;;;4983360;28;20038;-87
2023/10/31 02:53:33;;;;;;;0.43;0.43;;;11.80;99.90;;;;;;4981550;28;20042;-85
2023/10/31 02:55:59;;;;;;;0.50;0.50;;;11.70;99.90;;;;;;4978189;28;20029;-86
2023/10/31 02:58:25;;;;;;;0.32;0.32;;;11.60;99.90;;;;;;4978380;28;20034;-84
2023/10/31 03:00:50;;;;;;;0.15;0.15;;;11.70;99.90;;;;;;4979366;28;20022;-87
2023/10/31 03:03:16;;;;;;;0.40;0.40;;;11.70;99.90;;;;;;4977684;28;20026;-85
2023/10/31 03:05:42;;;;;;;0.40;0.40;;;11.70;99.90;;;;;;4980406;28;20053;-83
2023/10/31 03:08:10;;;;;;;1.75;0.40;;;11.70;99.90;;;;;;4977836;28;20391;-85
2023/10/31 03:10:36;;;;;;;0.20;0.20;;;11.80;99.90;;;;;;4979907;28;20026;-84
2023/10/31 03:13:02;;;;;;;0.20;0.20;;;11.80;99.90;;;;;;4978187;28;20038;-89
2023/10/31 03:15:28;;;;;;;0.30;0.30;;;11.80;99.90;;;;;;4980343;28;20022;-85
2023/10/31 03:17:53;;;;;;;0.17;0.17;;;11.70;99.90;;;;;;4995990;28;20027;-86
2023/10/31 03:20:19;;;;;;;1.00;0.73;;;11.70;99.90;;;;;;5005365;28;20026;-83
2023/10/31 03:22:44;;;;;;;0.25;0.25;;;11.80;99.90;;;;;;5004225;28;20033;-88
2023/10/31 03:25:10;;;;;;;0.40;0.40;;;11.80;99.90;;;;;;4981526;28;20106;-83
2023/10/31 03:27:36;;;;;;;0.50;0.50;;;11.70;99.90;;;;;;4982067;28;20022;-88
2023/10/31 03:30:04;;;;;;;0.50;0.50;;;11.70;99.90;;;;;;4979830;28;20377;-85
2023/10/31 03:32:29;;;;;;;0.10;0.10;;;11.70;99.90;;;;;;4962896;28;20046;-83
2023/10/31 03:34:55;;;;;;;1.55;1.10;;;11.80;99.90;;;;;;4978729;28;20486;-87
2023/10/31 03:37:21;;;;;;;0.85;0.63;;;11.80;99.90;;;;;;4981366;28;20223;-85
2023/10/31 03:39:46;;;;;;;0.15;0.15;;;11.80;99.90;;;;;;4983308;28;20030;-83
2023/10/31 03:42:12;;;;;;;0.45;0.45;;;11.80;99.90;;;;;;4999578;28;20400;-83
2023/10/31 03:44:37;;;;;;;0.20;0.20;;;11.80;99.90;;;;;;4981669;28;20030;-87
2023/10/31 03:47:03;;;;;;;0.30;0.30;;;11.80;99.90;;;;;;4999518;28;20026;-85
2023/10/31 03:49:29;;;;;;;0.95;0.65;;;11.80;99.90;;;;;;4981070;28;20326;-86
2023/10/31 03:51:54;;;;;;;0.82;0.80;;;11.80;99.90;;;;;;4983396;28;20072;-87
2023/10/31 03:54:20;;;;;;;0.73;0.73;;;11.90;99.90;;;;;;4982499;28;20030;-88
2023/10/31 03:56:45;;;;;;;0.30;0.30;;;11.90;99.90;;;;;;4982668;28;20036;-85
2023/10/31 03:59:11;;;;;;;0.65;0.65;;;11.90;99.90;;;;;;4984411;28;20025;-88
2023/10/31 04:01:37;;;;;;;0.65;0.65;;;11.90;99.90;;;;;;4983783;28;20570;-81
2023/10/31 04:04:05;;;;;;;0.57;0.57;;;11.90;99.90;;;;;;4983347;28;20286;-85
2023/10/31 04:06:33;;;;;;;0.63;0.63;;;11.90;99.90;;;;;;4984418;28;20030;-84
2023/10/31 04:09:00;;;;;;;0.30;0.30;;;12.00;99.90;;;;;;4982377;28;20157;-85
2023/10/31 04:11:26;;;;;;;0.50;0.50;;;11.90;99.90;;;;;;4984013;28;20034;-87
2023/10/31 04:13:52;;;;;;;0.40;0.40;;;11.90;99.90;;;;;;4981620;28;20518;-84
2023/10/31 04:16:17;;;;;;;0.52;0.52;;;11.90;99.90;;;;;;4979841;28;20033;-88
2023/10/31 04:18:43;;;;;;;1.63;0.55;;;11.90;99.90;;;;;;4981580;28;20023;-84
2023/10/31 04:21:08;;;;;;;0.70;0.70;;;11.90;99.90;;;;;;4981670;28;20486;-86
2023/10/31 04:23:34;;;;;;;0.55;0.55;;;11.90;99.90;;;;;;4983671;28;20027;-82
2023/10/31 04:26:00;;;;;;;0.73;0.73;;;11.90;99.90;;;;;;4982105;28;20538;-88
2023/10/31 04:28:25;;;;;;;0.82;0.82;;;12.00;99.90;;;;;;4981148;28;20029;-83
2023/10/31 04:30:51;;;;;;;0.80;0.80;;;12.00;99.90;;;;;;4983645;28;20037;-85
2023/10/31 04:33:16;;;;;;;0.65;0.65;;;12.00;99.90;;;;;;4984631;28;20397;-83
2023/10/31 04:35:42;;;;;;;0.38;0.38;;;12.00;99.90;;;;;;4982190;28;20624;-86
2023/10/31 04:38:08;;;;;;;0.47;0.47;;;12.00;99.90;;;;;;4980313;28;20033;-83
2023/10/31 04:40:33;;;;;;;2.10;0.43;;;11.90;99.90;;;;;;4981277;28;20053;-84
2023/10/31 04:42:59;;;;;;;0.30;0.30;;;11.90;99.90;;;;;;4981201;28;20183;-82
2023/10/31 04:45:25;;;;;;;0.65;0.65;;;11.90;99.90;;;;;;4983469;28;20038;-84
2023/10/31 04:47:50;;;;;;;0.30;0.30;;;11.90;99.90;;;;;;4980376;28;20018;-84
2023/10/31 04:50:16;;;;;;;0.73;0.73;;;11.90;99.90;;;;;;4963835;28;20093;-87
2023/10/31 04:52:42;;;;;;;0.82;0.82;;;11.90;99.90;;;;;;4981874;28;20045;-85
2023/10/31 04:55:08;;;;;;;0.20;0.20;;;11.90;99.90;;;;;;4982799;28;20030;-85
2023/10/31 04:57:33;;;;;;;0.93;0.93;;;11.90;99.90;;;;;;4981092;28;20062;-85
2023/10/31 04:59:59;;;;;;;0.63;0.63;;;11.90;99.90;;;;;;4980735;28;20058;-85
2023/10/31 05:02:25;;;;;;;1.48;0.40;;;11.90;99.90;;;;;;4980889;28;20073;-83
2023/10/31 05:04:51;;;;;;;0.68;0.68;;;12.00;99.90;;;;;;4983121;28;20412;-81
2023/10/31 05:07:19;;;;;;;0.20;0.20;;;12.00;99.90;;;;;;4981772;28;20034;-86
2023/10/31 05:09:45;;;;;;;0.57;0.57;;;12.00;99.90;;;;;;4982039;28;20476;-85
2023/10/31 05:12:11;;;;;;;0.50;0.50;;;12.00;99.90;;;;;;4981509;28;20061;-85
2023/10/31 05:14:37;;;;;;;0.50;0.50;;;11.90;99.90;;;;;;4983285;28;20049;-83
2023/10/31 05:17:04;;;;;;;0.30;0.30;;;11.90;99.90;;;;;;4980609;28;20421;-86
2023/10/31 05:19:30;;;;;;;2.17;0.40;;;12.00;99.90;;;;;;4982159;28;20022;-84
2023/10/31 05:21:56;;;;;;;4.35;1.45;;;11.90;99.90;;;;;;4983547;28;20090;-84
2023/10/31 05:24:21;;;;;;;0.20;0.20;;;12.00;99.90;;;;;;4995550;28;20531;-83
2023/10/31 05:26:47;;;;;;;0.50;0.50;;;12.00;99.90;;;;;;4984696;28;20045;-83
2023/10/31 05:29:13;;;;;;;0.30;0.30;;;11.90;99.90;;;;;;4982669;28;20027;-83
2023/10/31 05:31:38;;;;;;;0.22;0.22;;;11.90;99.90;;;;;;4983182;28;20568;-84
2023/10/31 05:34:04;;;;;;;0.55;0.55;;;11.90;99.90;;;;;;4982185;28;20045;-83
2023/10/31 05:36:30;;;;;;;0.57;0.57;;;11.90;99.90;;;;;;4966138;28;20018;-85
2023/10/31 05:38:56;;;;;;;0.25;0.25;;;11.90;99.90;;;;;;4984048;28;20022;-85
2023/10/31 05:41:21;;;;;;;0.45;0.45;;;12.00;99.90;;;;;;4987183;28;20069;-82
2023/10/31 05:43:47;;;;;;;0.30;0.30;;;12.00;99.90;;;;;;4986118;28;20098;-82
2023/10/31 05:46:14;;;;;;;0.70;0.70;;;12.00;99.90;;;;;;4991182;28;20026;-85
2023/10/31 05:48:41;;;;;;;1.17;0.35;;;12.00;99.90;;;;;;4988128;28;20129;-87
2023/10/31 05:51:16;;;;;;;0.65;0.65;;;12.00;99.90;;;;;;4984140;28;20474;-81
2023/10/31 05:53:45;;;;;;;0.65;0.65;;;11.90;99.90;;;;;;4982415;28;20066;-86
2023/10/31 05:56:16;;;;;;;1.10;0.95;;;11.90;99.90;;;;;;4979138;28;20029;-82
2023/10/31 05:58:42;;;;;;;0.63;0.63;;;11.90;99.90;;;;;;4979363;28;20026;-86
2023/10/31 06:01:08;;;;;;;0.85;0.85;;;11.90;99.90;;;;;;4980986;28;20104;-84
2023/10/31 06:03:34;;;;;;;2.92;1.50;;;11.90;99.90;;;;;;4981696;28;20402;-83
2023/10/31 06:06:00;;;;;;;0.65;0.65;;;11.90;99.90;;;;;;4981183;28;20108;-85
2023/10/31 06:08:28;;;;;;;0.63;0.63;;;12.00;99.90;;;;;;4981044;28;20018;-87
2023/10/31 06:10:55;;;;;;;0.60;0.60;;;11.90;99.90;;;;;;4982464;28;20014;-85
2023/10/31 06:13:21;;;;;;;0.95;0.95;;;11.80;99.90;;;;;;4983693;28;20027;-82
2023/10/31 06:15:48;;;;;;;0.50;0.50;;;11.90;99.90;;;;;;4982163;28;20033;-87
2023/10/31 06:18:13;;;;;;;1.60;1.50;;;11.90;99.90;;;;;;4982152;28;20027;-83
2023/10/31 06:20:39;;;;;;;1.85;0.50;;;11.90;99.90;;;;;;4980381;28;20486;-85
2023/10/31 06:23:05;;;;;;;0.35;0.35;;;12.00;99.90;;;;;;4982433;28;20128;-84
2023/10/31 06:25:31;;;;;;;0.68;0.68;;;12.00;99.90;;;;;;4981398;28;20942;-86
2023/10/31 06:27:56;;;;;;;0.52;0.52;;;12.00;99.90;;;;;;4980921;28;20379;-86
2023/10/31 06:30:25;;;;;;;1.10;0.73;;;12.00;99.90;;;;;;4980035;28;20030;-87
2023/10/31 06:32:53;;;;;;;0.80;0.80;;;12.00;99.90;;;;;;4982049;28;20587;-82
2023/10/31 06:35:19;;;;;;;1.67;1.10;;;12.10;99.90;;;;;;4982185;28;20022;-87
2023/10/31 06:37:44;;;;;;;0.52;0.50;;;12.10;99.90;;;;;;4990650;28;20026;-84
2023/10/31 06:40:13;;;;;;;1.13;1.08;;;12.10;99.90;;;;;;5005327;28;20046;-83
2023/10/31 06:42:38;;;;;;;0.30;0.30;;;12.00;99.90;;;;;;4988534;28;20025;-85
2023/10/31 06:45:04;;;;;;;1.60;1.50;;;12.10;99.90;;;;;;4991109;28;20069;-85
2023/10/31 06:47:30;;;;;;;0.50;0.50;;;12.00;99.90;;;;;;4980327;28;20034;-83
2023/10/31 06:49:56;;;;;;;1.08;1.08;;;12.00;99.90;;;;;;4980708;28;20026;-85
2023/10/31 06:52:21;;;;;;;0.57;0.57;;;12.00;99.90;;;;;;4978631;28;20105;-84
2023/10/31 06:54:47;;;;;;;0.50;0.50;;;12.00;99.90;;;;;;4985271;28;20030;-85
2023/10/31 06:57:12;;;;;;;0.73;0.73;;;12.00;99.90;;;;;;4979023;28;20782;-88
2023/10/31 06:59:38;;;;;;;1.73;0.85;;;12.00;99.90;;;;;;4982298;28;20069;-85
2023/10/31 07:02:04;;;;;;;0.77;0.77;;;12.00;99.90;;;;;;4979561;28;20022;-88
2023/10/31 07:04:30;;;;;;;0.30;0.30;;;12.10;99.90;;;;;;4978996;28;20026;-82
2023/10/31 07:06:57;;;;;;;0.75;0.75;;;12.00;99.90;;;;;;4981617;28;20022;-84
2023/10/31 07:09:24;;;;;;;4.20;1.65;;;12.10;99.90;;;;;;4964949;28;20557;-81
2023/10/31 07:11:49;;;;;;;0.32;0.32;;;12.10;99.90;;;;;;4982862;28;20113;-86
2023/10/31 07:14:16;;;;;;;2.38;1.05;;;12.00;99.90;;;;;;4984579;28;20089;-81
2023/10/31 07:16:43;;;;;;;0.40;0.40;;;12.00;99.90;;;;;;4985057;28;20415;-83
2023/10/31 07:19:12;;;;;;;0.22;0.22;;;12.00;99.90;;;;;;4986804;28;20160;-86
2023/10/31 07:21:37;;;;;;;0.73;0.73;;;12.10;99.90;;;;;;4985370;28;20469;-87
2023/10/31 07:24:08;;;;;;;1.15;0.73;;;12.00;99.90;;;;;;4986117;28;20037;-83
2023/10/31 07:26:37;;;;;;;0.40;0.40;;;12.10;99.90;;;;;;4986282;28;20030;-83
2023/10/31 07:29:03;;;;;;;1.00;0.52;;;12.10;99.90;;;;;;4982885;28;20037;-88
2023/10/31 07:31:29;;;;;;;0.95;0.85;;;12.10;99.90;;;;;;4987835;28;20030;-84
2023/10/31 07:33:55;;;;;;;0.40;0.40;;;12.20;99.90;;;;;;4985158;28;20465;-87
2023/10/31 07:36:21;;;;;;;2.20;0.68;;;12.10;99.90;;;;;;4984339;28;20030;-84
2023/10/31 07:38:47;;;;;;;0.10;0.10;;;12.20;99.90;;;;;;4985755;28;20485;-85
2023/10/31 07:41:13;;;;;;;0.28;0.28;;;12.20;99.90;;;;;;4984936;28;20034;-86
2023/10/31 07:43:38;;;;;;;0.20;0.20;;;12.20;99.90;;;;;;4986378;28;20026;-85
2023/10/31 07:46:04;;;;;;;0.30;0.30;;;12.20;99.90;;;;;;4984868;28;20035;-82
2023/10/31 07:48:31;;;;;;;0.20;0.20;;;12.30;99.90;;;;;;4986433;28;20149;-89
2023/10/31 07:50:59;;;;;;;1.48;0.63;;;12.30;99.90;;;;;;4987042;28;20033;-83
2023/10/31 07:53:25;;;;;;;0.32;0.32;;;12.30;99.90;;;;;;4985859;28;20130;-90
2023/10/31 07:55:52;;;;;;;0.50;0.50;;;12.30;99.90;;;;;;4966531;28;20053;-85
2023/10/31 07:58:18;;;;;;;0.52;0.20;;;12.20;99.90;;;;;;4985231;28;20026;-85
2023/10/31 08:00:43;;;;;;;0.20;0.20;;;12.30;99.90;;;;;;4984888;28;20022;-83
2023/10/31 08:03:09;;;;;;;0.47;0.47;;;12.30;99.90;;;;;;4982258;28;20680;-85
2023/10/31 08:05:35;;;;;;;0.32;0.32;;;12.30;99.90;;;;;;4984011;28;20101;-86
2023/10/31 08:08:01;;;;;;;1.35;1.23;;;12.40;99.90;;;;;;4983939;28;20030;-84
2023/10/31 08:10:27;;;;;;;0.38;0.38;;;12.40;99.90;;;;;;4987498;28;20081;-86
2023/10/31 08:12:55;;;;;;;0.50;0.50;;;12.40;99.90;;;;;;4984193;28;20034;-84
2023/10/31 08:15:20;;;;;;;0.63;0.63;;;12.50;99.90;;;;;;4982090;28;20018;-87
2023/10/31 08:17:48;;;;;;;0.38;0.38;;;12.50;99.90;;;;;;4981471;28;20434;-84
2023/10/31 08:20:14;;;;;;;1.75;0.57;;;12.40;99.90;;;;;;4964153;28;20019;-85
2023/10/31 08:22:42;;;;;;;0.30;0.30;;;12.60;99.90;;;;;;4981845;28;20262;-83
2023/10/31 08:25:08;;;;;;;0.30;0.30;;;12.60;99.90;;;;;;4980001;28;20328;-84
2023/10/31 08:27:36;;;;;;;0.40;0.40;;;12.60;99.90;;;;;;4981465;28;20025;-88
2023/10/31 08:30:02;;;;;;;0.95;0.95;;;12.70;99.90;;;;;;4982611;28;20060;-85
2023/10/31 08:32:28;;;;;;;0.20;0.20;;;12.60;99.90;;;;;;4985644;28;20030;-85
2023/10/31 08:34:54;;;;;;;0.35;0.35;;;12.70;99.90;;;;;;4988146;28;20073;-83
2023/10/31 08:37:20;;;;;;;0.40;0.40;;;12.70;99.90;;;;;;4981517;28;20034;-84
2023/10/31 08:39:45;;;;;;;3.00;0.80;;;12.60;99.90;;;;;;4980687;28;20034;-90
2023/10/31 08:42:14;;;;;;;1.48;1.33;;;12.60;99.90;;;;;;4962751;28;20030;-85
2023/10/31 08:44:40;;;;;;;0.80;0.77;;;12.70;99.90;;;;;;4981186;28;20417;-82
2023/10/31 08:47:06;;;;;;;0.43;0.43;;;12.70;99.90;;;;;;4979012;28;20042;-85
2023/10/31 08:49:32;;;;;;;0.38;0.38;;;12.60;99.90;;;;;;4982336;28;20030;-85
2023/10/31 08:51:58;;;;;;;0.63;0.63;;;12.70;99.90;;;;;;4981055;28;20097;-85
2023/10/31 08:54:26;;;;;;;0.88;0.65;;;12.70;99.90;;;;;;4978688;28;20035;-84
2023/10/31 08:56:52;;;;;;;0.85;0.75;;;12.70;99.90;;;;;;4981619;28;20386;-83
2023/10/31 08:59:17;;;;;;;0.40;0.40;;;12.70;99.90;;;;;;4980156;28;20367;-81
2023/10/31 09:01:43;;;;;;;1.05;0.95;;;12.70;99.90;;;;;;4981980;28;20018;-83
2023/10/31 09:04:10;;;;;;;0.93;0.50;;;12.70;99.90;;;;;;4980398;28;20026;-83
2023/10/31 09:06:36;;;;;;;0.55;0.55;;;12.90;99.90;;;;;;4963938;28;20093;-86
2023/10/31 09:09:03;;;;;;;1.35;0.98;;;12.80;99.90;;;;;;4981658;28;20026;-85
2023/10/31 09:11:29;;;;;;;0.85;0.85;;;12.90;99.90;;;;;;4986050;28;20026;-84
2023/10/31 09:13:54;;;;;;;0.55;0.55;;;13.00;99.90;;;;;;4982627;28;20304;-86
2023/10/31 09:16:20;;;;;;;0.98;0.98;;;13.10;99.90;;;;;;4981991;28;20636;-85
2023/10/31 09:18:46;;;;;;;1.05;1.05;;;13.20;99.90;;;;;;4980182;28;20128;-86
2023/10/31 09:21:12;;;;;;;0.47;0.47;;;13.10;99.90;;;;;;4980527;28;20316;-82
2023/10/31 09:23:38;;;;;;;2.75;0.77;;;13.10;99.90;;;;;;4980047;28;20434;-87
2023/10/31 09:26:03;;;;;;;0.30;0.30;;;13.30;99.90;;;;;;4982611;28;20019;-82
2023/10/31 09:28:29;;;;;;;3.25;0.70;;;13.30;99.90;;;;;;4979902;28;20025;-88
2023/10/31 09:30:55;;;;;;;0.68;0.68;;;13.40;99.90;;;;;;4980676;28;20505;-83
2023/10/31 09:33:21;;;;;;;0.45;0.45;;;13.50;99.90;;;;;;4981218;28;20129;-84
2023/10/31 09:35:49;;;;;;;0.50;0.50;;;13.60;99.90;;;;;;4980397;28;20110;-83
2023/10/31 09:38:15;;;;;;;1.02;0.93;;;13.80;99.90;;;;;;4981725;28;20108;-86
2023/10/31 09:40:40;;;;;;;0.95;0.70;;;13.80;99.90;;;;;;4983160;28;20463;-83
2023/10/31 09:43:06;;;;;;;4.68;0.90;;;13.90;99.90;;;;;;4979609;28;20037;-86
2023/10/31 09:45:32;;;;;;;0.28;0.28;;;14.10;99.90;;;;;;4983295;28;20038;-86
2023/10/31 09:48:00;;;;;;;2.35;0.93;;;14.10;99.90;;;;;;4982845;28;20363;-87
2023/10/31 09:50:26;;;;;;;0.85;0.85;;;14.10;99.90;;;;;;4981976;28;20030;-85
2023/10/31 09:52:53;;;;;;;2.33;0.57;;;14.10;99.90;;;;;;4989892;28;20069;-84
2023/10/31 09:55:19;;;;;;;2.58;1.33;;;14.10;99.90;;;;;;4984519;28;20030;-83
2023/10/31 09:57:45;;;;;;;1.63;0.98;;;14.00;99.90;;;;;;4989755;28;20041;-84
2023/10/31 10:00:13;;;;;;;0.45;0.45;;;14.00;99.90;;;;;;5001280;28;20030;-85
2023/10/31 10:02:39;;;;;;;4.43;0.82;;;14.30;99.90;;;;;;5003961;28;20090;-83
2023/10/31 10:05:05;;;;;;;1.92;0.68;;;14.30;99.90;;;;;;5001655;28;20026;-87
2023/10/31 10:07:40;;;;;;;7.43;1.45;;;14.30;99.90;;;;;;4977265;28;20846;-85
2023/10/31 10:10:10;;;;;;;0.82;0.82;;;14.40;99.90;;;;;;4982268;28;20152;-84
2023/10/31 10:12:36;;;;;;;0.43;0.43;;;14.40;99.90;;;;;;4981223;28;20080;-82
2023/10/31 10:15:04;;;;;;;0.70;0.70;;;14.50;99.90;;;;;;4982756;28;20029;-86
2023/10/31 10:17:30;;;;;;;1.33;1.17;;;14.50;99.90;;;;;;4980200;28;20061;-85
2023/10/31 10:20:07;;;;;;;0.30;0.30;;;14.30;99.90;;;;;;4982816;28;20037;-85
2023/10/31 10:22:37;;;;;;;0.60;0.60;;;14.20;99.90;;;;;;4964802;28;20030;-83
2023/10/31 10:25:07;;;;;;;0.52;0.52;;;14.10;99.90;;;;;;4979707;28;20085;-89
2023/10/31 10:27:33;;;;;;;0.47;0.47;;;14.00;99.90;;;;;;4963512;28;20088;-86
2023/10/31 10:30:01;;;;;;;0.28;0.28;;;13.90;99.90;;;;;;4982397;28;20018;-82
2023/10/31 10:32:26;;;;;;;1.05;0.93;;;13.90;99.90;;;;;;4978610;28;20399;-86
2023/10/31 10:34:54;;;;;;;0.70;0.70;;;13.90;99.90;;;;;;4983029;28;20121;-85
2023/10/31 10:37:24;;;;;;;0.77;0.70;;;13.80;99.90;;;;;;4979471;28;20026;-87
2023/10/31 10:39:55;;;;;;;3.22;0.77;;;13.80;99.90;;;;;;4981490;28;20758;-85
2023/10/31 10:42:36;;;;;;;0.75;0.75;;;13.80;99.90;;;;;;4975577;28;20080;-87
2023/10/31 10:45:04;;;;;;;0.52;0.50;;;13.90;99.90;;;;;;4979757;28;20125;-88
2023/10/31 10:47:31;;;;;;;0.70;0.70;;;13.80;99.90;;;;;;4980824;28;20026;-85
2023/10/31 10:50:00;;;;;;;0.28;0.28;;;13.80;99.90;;;;;;4977002;28;20035;-84
2023/10/31 10:52:53;;;;;;;1.23;1.23;;;13.80;99.90;;;;;;4981957;28;20023;-84
2023/10/31 10:55:25;;;;;;;;;;;13.90;99.90;;;;;;4978527;28;20019;-86
2023/10/31 10:58:05;;;;;;;0.75;0.55;;;13.80;99.90;;;;;;4980176;28;20181;-84
2023/10/31 11:00:34;;;;;;;0.68;0.68;;;13.90;99.90;;;;;;4978416;28;20022;-87
2023/10/31 11:03:00;;;;;;;0.32;0.32;;;14.00;99.90;;;;;;4978495;28;20390;-82
2023/10/31 11:05:26;;;;;;;0.70;0.70;;;13.90;99.90;;;;;;4980582;28;20034;-87
2023/10/31 11:07:55;;;;;;;1.75;1.13;;;14.00;99.90;;;;;;4981443;28;20026;-84
2023/10/31 11:10:21;;;;;;;0.82;0.82;;;13.80;99.90;;;;;;4982606;28;20029;-92
2023/10/31 11:12:47;;;;;;;1.65;1.55;;;14.00;99.90;;;;;;4979940;28;20038;-84
2023/10/31 11:15:16;;;;;;;2.63;1.25;;;13.90;99.90;;;;;;4981217;28;20064;-85
2023/10/31 11:17:46;;;;;;;0.60;0.60;;;14.00;99.90;;;;;;4961779;28;20015;-83
2023/10/31 11:20:14;;;;;;;0.30;0.30;;;14.10;99.90;;;;;;4982511;28;20101;-84
2023/10/31 11:22:44;;;;;;;1.27;0.40;;;14.20;99.90;;;;;;4977756;28;20023;-85
2023/10/31 11:25:15;;;;;;;1.20;1.20;;;14.00;99.90;;;;;;4986910;28;20029;-86
2023/10/31 11:27:43;;;;;;;2.15;1.70;;;13.90;99.90;;;;;;4980720;28;20053;-86
2023/10/31 11:30:32;;;;;;;4.03;1.35;;;13.90;99.90;;;;;;4964212;28;20041;-82
2023/10/31 11:32:59;;;;;;;1.80;0.95;;;14.00;99.90;;;;;;4970314;28;20070;-87
2023/10/31 11:35:29;;;;;;;2.78;0.88;;;14.00;99.90;;;;;;4972667;28;20252;-83
2023/10/31 11:38:03;;;;;;;0.82;0.75;;;14.00;99.90;;;;;;4967521;28;20026;-86
2023/10/31 11:40:29;;;;;;;4.80;1.20;;;14.10;99.90;;;;;;4959583;28;20089;-87
2023/10/31 11:43:02;;;;;;;2.40;1.75;;;14.20;99.90;;;;;;4987439;28;20033;-84
2023/10/31 11:45:30;;;;;;;0.68;0.68;;;14.30;99.90;;;;;;4947649;28;20069;-85
2023/10/31 11:47:58;;;;;;;0.30;0.30;;;14.30;99.90;;;;;;4970472;28;20022;-83
2023/10/31 11:50:24;;;;;;;1.40;0.30;;;14.40;99.90;;;;;;4966368;28;20124;-88
2023/10/31 11:53:22;;;;;;;0.63;0.30;;;14.50;99.90;;;;;;4970583;28;20130;-85
2023/10/31 11:55:48;;;;;;;1.08;1.08;;;14.50;99.90;;;;;;4954911;28;20085;-83
2023/10/31 11:58:21;;;;;;;0.50;0.50;;;14.60;99.90;;;;;;4951335;28;20037;-83
2023/10/31 12:00:52;;;;;;;0.65;0.65;;;14.60;99.90;;;;;;4967391;28;20034;-85
2023/10/31 12:03:19;;;;;;;1.58;0.68;;;14.60;99.90;;;;;;4974971;28;20018;-85
2023/10/31 12:05:55;;;;;;;2.03;1.35;;;14.60;99.90;;;;;;4973127;28;20027;-89
2023/10/31 12:08:31;;;;;;;0.85;0.85;;;14.60;99.90;;;;;;4950473;28;20030;-86
2023/10/31 12:11:12;;;;;;;0.45;0.45;;;14.70;99.90;;;;;;4955630;28;20665;-86
2023/10/31 12:13:51;;;;;;;1.30;1.20;;;14.80;99.90;;;;;;4967326;28;20042;-85
2023/10/31 12:16:17;;;;;;;0.73;0.73;;;14.70;99.90;;;;;;4972519;28;20117;-84
2023/10/31 12:18:43;;;;;;;1.15;1.15;;;14.60;99.90;;;;;;4970584;28;20027;-89
2023/10/31 12:21:10;;;;;;;5.05;1.27;;;14.60;99.90;;;;;;4975512;28;20747;-82
2023/10/31 12:23:36;;;;;;;0.60;0.60;;;14.70;99.90;;;;;;4968358;28;20045;-86
2023/10/31 12:26:02;;;;;;;0.30;0.30;;;14.70;99.90;;;;;;4951864;28;20502;-88
2023/10/31 12:28:28;;;;;;;1.35;0.70;;;14.60;99.90;;;;;;4972952;28;20106;-86
2023/10/31 12:30:54;;;;;;;0.55;0.55;;;14.70;99.90;;;;;;4967987;28;20113;-85
2023/10/31 12:33:24;;;;;;;0.63;0.63;;;14.50;99.90;;;;;;4949912;28;20038;-84
2023/10/31 12:35:51;;;;;;;0.75;0.75;;;14.40;99.90;;;;;;4984609;28;20034;-85
2023/10/31 12:38:18;;;;;;;1.23;0.80;;;14.50;99.90;;;;;;4974363;28;20041;-84
2023/10/31 12:40:46;;;;;;;0.25;0.25;;;14.50;99.90;;;;;;4969566;28;20030;-85
2023/10/31 12:43:12;;;;;;;0.65;0.65;;;14.40;99.90;;;;;;4970627;28;20022;-85
2023/10/31 12:45:38;;;;;;;0.95;0.95;;;14.40;99.90;;;;;;4969940;28;20096;-87